createdAt,value
2018-04-15T00:02:25.484Z,71.20
2018-04-15T00:04:52.054Z,71.70
2018-04-15T00:07:18.589Z,71.90
2018-04-15T00:09:52.012Z,71.90
2018-04-15T00:12:18.582Z,72.20
2018-04-15T00:14:45.493Z,72.80
2018-04-15T00:17:12.060Z,72.80
2018-04-15T00:19:38.634Z,72.60
2018-04-15T00:22:05.577Z,72.90
2018-04-15T00:24:32.512Z,73.50
2018-04-15T00:26:59.129Z,73.50
2018-04-15T00:29:25.681Z,73.50
2018-04-15T00:31:52.263Z,73.60
2018-04-15T00:34:18.831Z,73.10
2018-04-15T00:36:45.739Z,73.70
2018-04-15T00:39:12.304Z,73.70
2018-04-15T00:41:38.879Z,73.30
2018-04-15T00:44:05.792Z,73.10
2018-04-15T00:46:32.367Z,73.10
2018-04-15T00:48:59.312Z,72.70
2018-04-15T00:51:25.856Z,72.80
2018-04-15T00:54:04.599Z,73.10
2018-04-15T00:56:31.179Z,72.90
2018-04-15T00:58:57.716Z,72.20
2018-04-15T01:01:24.680Z,72.00
2018-04-15T01:03:51.260Z,72.00
2018-04-15T01:06:17.809Z,71.80
2018-04-15T01:08:44.388Z,71.40
2018-04-15T01:11:10.964Z,72.10
2018-04-15T01:13:37.868Z,73.60
2018-04-15T01:16:04.459Z,73.60
2018-04-15T01:18:31.397Z,73.80
2018-04-15T01:20:57.944Z,73.80
2018-04-15T01:23:24.556Z,73.70
2018-04-15T01:25:51.132Z,73.60
2018-04-15T01:28:17.677Z,73.90
2018-04-15T01:30:44.239Z,73.50
2018-04-15T01:33:10.856Z,73.30
2018-04-15T01:35:37.403Z,73.50
2018-04-15T01:38:03.992Z,73.70
2018-04-15T01:40:30.565Z,73.80
2018-04-15T01:42:57.101Z,73.30
2018-04-15T01:45:23.676Z,73.10
2018-04-15T01:47:50.305Z,73.30
2018-04-15T01:50:17.209Z,74.70
2018-04-15T01:52:43.776Z,74.70
2018-04-15T01:55:10.350Z,74.80
2018-04-15T01:57:36.888Z,74.30
2018-04-15T02:00:03.857Z,74.90
2018-04-15T02:02:30.428Z,74.90
2018-04-15T02:04:56.965Z,75.50
2018-04-15T02:07:23.535Z,76.10
2018-04-15T02:09:50.471Z,76.40
2018-04-15T02:12:17.016Z,75.90
2018-04-15T02:14:43.580Z,75.00
2018-04-15T02:17:10.167Z,75.00
2018-04-15T02:19:36.744Z,74.90
2018-04-15T02:22:03.400Z,74.70
2018-04-15T02:24:29.980Z,76.20
2018-04-15T02:26:56.520Z,76.70
2018-04-15T02:29:23.093Z,76.90
2018-04-15T02:31:49.664Z,77.40
2018-04-15T02:34:16.208Z,76.90
2018-04-15T02:36:42.771Z,76.50
2018-04-15T02:39:09.736Z,76.30
2018-04-15T02:41:36.366Z,76.30
2018-04-15T02:44:02.976Z,76.30
2018-04-15T02:46:29.552Z,75.90
2018-04-15T02:48:56.088Z,75.40
2018-04-15T02:51:22.660Z,75.50
2018-04-15T02:53:49.596Z,77.60
2018-04-15T02:56:16.136Z,77.50
2018-04-15T02:58:42.705Z,77.30
2018-04-15T03:01:09.272Z,77.30
2018-04-15T03:03:36.237Z,78.00
2018-04-15T03:06:02.817Z,78.00
2018-04-15T03:08:29.382Z,77.50
2018-04-15T03:10:55.925Z,76.50
2018-04-15T03:13:22.491Z,77.10
2018-04-15T03:15:49.057Z,78.00
2018-04-15T03:18:15.959Z,78.40
2018-04-15T03:20:42.527Z,78.40
2018-04-15T03:23:09.140Z,78.20
2018-04-15T03:25:35.676Z,78.40
2018-04-15T03:28:02.280Z,78.00
2018-04-15T03:30:28.848Z,77.70
2018-04-15T03:32:55.764Z,77.40
2018-04-15T03:35:22.328Z,77.40
2018-04-15T03:37:48.896Z,77.50
2018-04-15T03:40:15.800Z,77.00
2018-04-15T03:42:42.374Z,77.00
2018-04-15T03:45:08.947Z,77.50
2018-04-15T03:47:35.860Z,76.80
2018-04-15T03:50:02.464Z,76.80
2018-04-15T03:52:29.399Z,77.20
2018-04-15T03:54:55.960Z,77.20
2018-04-15T03:57:22.532Z,77.00
2018-04-15T03:59:49.092Z,77.00
2018-04-15T04:02:15.624Z,77.10
2018-04-15T04:04:42.203Z,77.70
2018-04-15T04:07:08.795Z,78.10
2018-04-15T04:09:35.324Z,77.70
2018-04-15T04:12:01.886Z,77.30
2018-04-15T04:14:28.464Z,77.80
2018-04-15T04:16:55.351Z,78.10
2018-04-15T04:19:34.164Z,78.20
2018-04-15T04:22:12.899Z,79.10
2018-04-15T04:24:51.568Z,78.40
2018-04-15T04:27:18.160Z,78.20
2018-04-15T04:29:44.719Z,77.80
2018-04-15T04:32:11.284Z,78.10
2018-04-15T04:34:37.852Z,78.10
2018-04-15T04:37:04.380Z,78.10
2018-04-15T04:39:30.941Z,77.90
2018-04-15T04:41:57.499Z,77.90
2018-04-15T04:44:24.032Z,77.20
2018-04-15T04:46:50.598Z,77.90
2018-04-15T04:49:17.161Z,78.10
2018-04-15T04:51:43.699Z,78.20
2018-04-15T04:54:10.265Z,79.10
2018-04-15T04:56:37.204Z,79.10
2018-04-15T04:59:03.741Z,79.10
2018-04-15T05:01:30.339Z,78.90
2018-04-15T05:03:56.957Z,78.20
2018-04-15T05:06:23.502Z,78.30
2018-04-15T05:08:50.068Z,78.00
2018-04-15T05:11:17.013Z,79.70
2018-04-15T05:13:43.916Z,80.00
2018-04-15T05:16:10.485Z,80.00
2018-04-15T05:18:37.052Z,79.90
2018-04-15T05:21:03.608Z,80.00
2018-04-15T05:23:30.244Z,79.80
2018-04-15T05:25:56.844Z,79.50
2018-04-15T05:28:23.384Z,79.40
2018-04-15T05:30:49.960Z,79.30
2018-04-15T05:33:16.523Z,79.50
2018-04-15T05:35:43.056Z,79.20
2018-04-15T05:38:09.629Z,79.20
2018-04-15T05:40:36.204Z,78.80
2018-04-15T05:43:03.116Z,78.30
2018-04-15T05:45:29.703Z,78.30
2018-04-15T05:47:56.641Z,77.80
2018-04-15T05:50:23.175Z,77.80
2018-04-15T05:52:49.740Z,77.70
2018-04-15T05:55:16.316Z,77.40
2018-04-15T05:57:42.883Z,77.00
2018-04-15T06:00:09.524Z,77.20
2018-04-15T06:02:36.096Z,77.20
2018-04-15T06:05:02.669Z,77.00
2018-04-15T06:07:29.261Z,77.20
2018-04-15T06:09:55.832Z,77.40
2018-04-15T06:12:22.376Z,78.00
2018-04-15T06:14:48.949Z,78.10
2018-04-15T06:17:15.519Z,77.70
2018-04-15T06:19:42.057Z,77.70
2018-04-15T06:22:08.632Z,77.50
2018-04-15T06:24:35.586Z,77.00
2018-04-15T06:27:02.224Z,76.90
2018-04-15T06:29:28.810Z,76.50
2018-04-15T06:31:55.952Z,75.70
2018-04-15T06:34:22.597Z,75.30
2018-04-15T06:36:49.602Z,75.50
2018-04-15T06:39:16.167Z,75.50
2018-04-15T06:41:42.717Z,76.40
2018-04-15T06:44:09.300Z,75.90
2018-04-15T06:46:35.885Z,76.30
2018-04-15T06:49:02.449Z,75.60
2018-04-15T06:51:29.075Z,75.50
2018-04-15T06:53:56.029Z,75.50
2018-04-15T06:56:22.580Z,75.50
2018-04-15T06:58:49.156Z,74.50
2018-04-15T07:01:15.731Z,74.90
2018-04-15T07:03:42.644Z,73.30
2018-04-15T07:06:09.236Z,73.30
2018-04-15T07:08:36.181Z,71.40
2018-04-15T07:11:03.100Z,69.40
2018-04-15T07:13:29.963Z,69.40
2018-04-15T07:15:56.545Z,68.30
2018-04-15T07:18:23.465Z,67.80
2018-04-15T07:20:50.045Z,67.90
2018-04-15T07:23:17.016Z,66.40
2018-04-15T07:25:44.049Z,65.50
2018-04-15T07:28:10.635Z,65.50
2018-04-15T07:30:37.213Z,64.10
2018-04-15T07:33:03.760Z,63.60
2018-04-15T07:35:30.387Z,61.60
2018-04-15T07:37:57.008Z,61.40
2018-04-15T07:40:23.545Z,61.60
2018-04-15T07:42:50.109Z,60.80
2018-04-15T07:45:16.678Z,62.00
2018-04-15T07:47:43.208Z,61.40
2018-04-15T07:50:09.815Z,61.60
2018-04-15T07:52:36.404Z,60.40
2018-04-15T07:55:02.976Z,60.70
2018-04-15T07:57:29.544Z,59.70
2018-04-15T07:59:56.140Z,59.30
2018-04-15T08:02:23.067Z,60.30
2018-04-15T08:04:49.640Z,60.30
2018-04-15T08:07:16.588Z,58.60
2018-04-15T08:09:43.516Z,58.30
2018-04-15T08:12:10.092Z,58.30
2018-04-15T08:14:36.665Z,59.20
2018-04-15T08:17:03.206Z,58.30
2018-04-15T08:19:30.498Z,57.60
2018-04-15T08:21:57.152Z,58.30
2018-04-15T08:24:23.693Z,58.10
2018-04-15T08:26:50.296Z,57.80
2018-04-15T08:29:16.889Z,57.80
2018-04-15T08:31:43.428Z,58.10
2018-04-15T08:34:10.270Z,57.70
2018-04-15T08:36:37.119Z,58.00
2018-04-15T08:39:04.058Z,59.00
2018-04-15T08:41:31.302Z,57.50
2018-04-15T08:43:57.881Z,57.50
2018-04-15T08:46:24.784Z,57.20
2018-04-15T08:48:51.360Z,57.20
2018-04-15T08:51:18.065Z,57.30
2018-04-15T08:53:44.605Z,57.50
2018-04-15T08:56:11.176Z,57.50
2018-04-15T08:58:37.744Z,57.80
2018-04-15T09:01:04.302Z,58.40
2018-04-15T09:03:30.916Z,57.50
2018-04-15T09:05:57.495Z,57.50
2018-04-15T09:08:24.032Z,57.60
2018-04-15T09:10:50.604Z,56.80
2018-04-15T09:13:17.565Z,55.10
2018-04-15T09:15:44.480Z,56.30
2018-04-15T09:18:11.070Z,56.30
2018-04-15T09:20:38.023Z,54.70
2018-04-15T09:23:04.950Z,54.70
2018-04-15T09:25:31.567Z,54.80
2018-04-15T09:27:58.143Z,53.50
2018-04-15T09:30:24.735Z,54.20
2018-04-15T09:32:51.682Z,52.90
2018-04-15T09:35:18.251Z,52.90
2018-04-15T09:37:44.908Z,53.60
2018-04-15T09:40:11.471Z,54.20
2018-04-15T09:42:38.040Z,53.60
2018-04-15T09:45:04.617Z,54.20
2018-04-15T09:47:31.584Z,55.20
2018-04-15T09:49:58.523Z,56.20
2018-04-15T09:52:25.056Z,56.20
2018-04-15T09:54:51.636Z,56.20
2018-04-15T09:57:18.576Z,57.00
2018-04-15T09:59:45.120Z,57.00
2018-04-15T10:02:11.771Z,55.80
2018-04-15T10:04:39.043Z,55.20
2018-04-15T10:07:05.599Z,55.20
2018-04-15T10:09:32.542Z,53.60
2018-04-15T10:11:59.503Z,54.30
2018-04-15T10:14:26.412Z,54.90
2018-04-15T10:16:53.011Z,54.90
2018-04-15T10:19:19.968Z,57.50
2018-04-15T10:21:46.916Z,57.30
2018-04-15T10:24:13.557Z,57.30
2018-04-15T10:26:40.160Z,57.60
2018-04-15T10:29:06.691Z,56.30
2018-04-15T10:31:33.256Z,55.20
2018-04-15T10:33:59.829Z,54.60
2018-04-15T10:36:26.363Z,53.90
2018-04-15T10:38:52.927Z,54.10
2018-04-15T10:41:19.492Z,54.40
2018-04-15T10:43:52.952Z,53.90
2018-04-15T10:46:19.521Z,53.70
2018-04-15T10:48:46.182Z,54.30
2018-04-15T10:51:12.752Z,54.40
2018-04-15T10:53:39.327Z,55.50
2018-04-15T10:56:05.871Z,54.70
2018-04-15T10:58:32.443Z,54.70
2018-04-15T11:00:59.009Z,54.60
2018-04-15T11:03:25.548Z,54.40
2018-04-15T11:05:52.109Z,54.60
2018-04-15T11:08:18.676Z,55.60
2018-04-15T11:10:45.199Z,55.60
2018-04-15T11:13:11.760Z,58.70
2018-04-15T11:15:38.326Z,60.30
2018-04-15T11:18:05.235Z,60.10
2018-04-15T11:20:31.823Z,60.20
2018-04-15T11:22:58.384Z,60.30
2018-04-15T11:25:25.363Z,62.00
2018-04-15T11:27:51.925Z,62.00
2018-04-15T11:30:18.493Z,61.60
2018-04-15T11:32:45.025Z,61.30
2018-04-15T11:35:11.585Z,62.10
2018-04-15T11:37:38.156Z,62.80
2018-04-15T11:40:11.648Z,62.10
2018-04-15T11:42:38.212Z,61.70
2018-04-15T11:45:04.818Z,63.40
2018-04-15T11:47:31.395Z,61.60
2018-04-15T11:49:57.959Z,60.30
2018-04-15T11:52:24.487Z,61.10
2018-04-15T11:54:51.056Z,61.80
2018-04-15T11:57:17.629Z,61.30
2018-04-15T11:59:44.528Z,60.20
2018-04-15T12:02:11.108Z,60.20
2018-04-15T12:04:37.665Z,59.70
2018-04-15T12:07:04.233Z,58.00
2018-04-15T12:09:30.800Z,57.80
2018-04-15T12:11:57.375Z,58.60
2018-04-15T12:14:23.905Z,57.90
2018-04-15T12:16:50.475Z,58.20
2018-04-15T12:19:17.063Z,57.60
2018-04-15T12:21:43.604Z,58.30
2018-04-15T12:24:10.545Z,58.00
2018-04-15T12:26:37.161Z,58.00
2018-04-15T12:29:03.700Z,57.80
2018-04-15T12:31:30.265Z,57.00
2018-04-15T12:33:56.889Z,56.80
2018-04-15T12:36:23.403Z,54.00
2018-04-15T12:38:50.341Z,54.70
2018-04-15T12:41:16.904Z,54.70
2018-04-15T12:43:43.799Z,53.80
2018-04-15T12:46:10.365Z,53.80
2018-04-15T12:48:36.931Z,54.40
2018-04-15T12:51:03.460Z,54.00
2018-04-15T12:53:30.032Z,54.10
2018-04-15T12:55:56.600Z,52.30
2018-04-15T12:58:23.144Z,52.50
2018-04-15T13:00:56.963Z,53.10
2018-04-15T13:03:23.908Z,54.80
2018-04-15T13:05:50.816Z,56.10
2018-04-15T13:08:17.388Z,56.10
2018-04-15T13:10:43.952Z,55.10
2018-04-15T13:13:10.500Z,54.90
2018-04-15T13:15:37.070Z,54.00
2018-04-15T13:18:04.052Z,55.30
2018-04-15T13:20:30.588Z,55.30
2018-04-15T13:22:57.165Z,55.10
2018-04-15T13:25:23.779Z,55.80
2018-04-15T13:27:50.340Z,55.30
2018-04-15T13:30:16.909Z,55.30
2018-04-15T13:32:43.471Z,55.60
2018-04-15T13:35:09.999Z,55.50
2018-04-15T13:37:36.565Z,55.70
2018-04-15T13:40:03.186Z,57.20
2018-04-15T13:42:29.723Z,57.40
2018-04-15T13:44:56.287Z,56.60
2018-04-15T13:47:22.857Z,56.60
2018-04-15T13:49:49.417Z,56.70
2018-04-15T13:52:15.987Z,57.10
2018-04-15T13:54:42.933Z,57.40
2018-04-15T13:57:09.476Z,57.40
2018-04-15T13:59:36.040Z,56.60
2018-04-15T14:02:03.012Z,59.60
2018-04-15T14:04:29.548Z,59.60
2018-04-15T14:06:56.496Z,59.80
2018-04-15T14:09:23.453Z,58.80
2018-04-15T14:11:50.015Z,58.80
2018-04-15T14:14:16.591Z,59.50
2018-04-15T14:16:43.167Z,59.90
2018-04-15T14:19:09.725Z,60.30
2018-04-15T14:21:36.351Z,59.70
2018-04-15T14:24:02.924Z,60.40
2018-04-15T14:26:29.624Z,61.30
2018-04-15T14:28:56.189Z,60.50
2018-04-15T14:31:22.748Z,59.40
2018-04-15T14:33:49.272Z,60.30
2018-04-15T14:36:15.837Z,60.70
2018-04-15T14:38:42.396Z,60.60
2018-04-15T14:41:08.941Z,60.00
2018-04-15T14:43:35.533Z,60.00
2018-04-15T14:46:02.095Z,59.90
2018-04-15T14:48:28.657Z,60.70
2018-04-15T14:50:55.220Z,62.20
2018-04-15T14:53:21.789Z,60.30
2018-04-15T14:55:48.329Z,61.10
2018-04-15T14:58:14.900Z,60.40
2018-04-15T15:00:41.916Z,61.20
2018-04-15T15:03:08.758Z,61.20
2018-04-15T15:05:35.391Z,61.30
2018-04-15T15:08:02.104Z,61.30
2018-04-15T15:10:28.843Z,62.00
2018-04-15T15:12:55.548Z,61.90
2018-04-15T15:15:22.117Z,62.10
2018-04-15T15:17:48.820Z,62.30
2018-04-15T15:20:16.056Z,62.10
2018-04-15T15:22:42.883Z,62.10
2018-04-15T15:25:09.547Z,62.40
2018-04-15T15:27:36.223Z,63.10
2018-04-15T15:30:03.396Z,63.20
2018-04-15T15:32:30.355Z,64.10
2018-04-15T15:34:57.311Z,63.60
2018-04-15T15:37:24.244Z,63.50
2018-04-15T15:39:50.776Z,63.50
2018-04-15T15:42:17.336Z,63.20
2018-04-15T15:44:43.892Z,63.60
2018-04-15T15:47:10.427Z,64.00
2018-04-15T15:49:36.997Z,64.50
2018-04-15T15:52:03.960Z,65.70
2018-04-15T15:54:30.920Z,65.60
2018-04-15T15:56:57.492Z,65.60
2018-04-15T15:59:24.127Z,65.60
2018-04-15T16:01:51.024Z,65.80
2018-04-15T16:04:17.584Z,65.80
2018-04-15T16:06:44.154Z,66.30
2018-04-15T16:09:11.056Z,66.40
2018-04-15T16:11:37.618Z,66.40
2018-04-15T16:14:04.192Z,66.60
2018-04-15T16:16:30.724Z,67.60
2018-04-15T16:18:57.304Z,67.70
2018-04-15T16:21:24.241Z,68.70
2018-04-15T16:23:50.769Z,68.70
2018-04-15T16:26:17.347Z,68.40
2018-04-15T16:28:44.312Z,67.80
2018-04-15T16:31:11.211Z,67.10
2018-04-15T16:33:37.780Z,67.10
2018-04-15T16:36:04.356Z,66.70
2018-04-15T16:38:31.301Z,66.80
2018-04-15T16:40:57.872Z,66.80
2018-04-15T16:43:24.445Z,67.50
2018-04-15T16:45:50.989Z,67.90
2018-04-15T16:48:17.564Z,67.40
2018-04-15T16:50:44.179Z,67.80
2018-04-15T16:53:10.696Z,67.50
2018-04-15T16:55:38.183Z,67.90
2018-04-15T16:58:04.749Z,67.90
2018-04-15T17:00:31.288Z,67.90
2018-04-15T17:02:57.852Z,67.60
2018-04-15T17:05:24.419Z,67.50
2018-04-15T17:07:51.252Z,67.90
2018-04-15T17:10:18.599Z,67.50
2018-04-15T17:12:45.971Z,69.10
2018-04-15T17:15:12.499Z,70.40
2018-04-15T17:17:39.077Z,70.50
2018-04-15T17:20:05.724Z,70.30
2018-04-15T17:22:32.303Z,69.90
2018-04-15T17:24:58.884Z,69.80
2018-04-15T17:27:25.867Z,69.90
2018-04-15T17:29:52.401Z,69.90
2018-04-15T17:32:18.972Z,70.60
2018-04-15T17:34:45.548Z,70.40
2018-04-15T17:37:12.621Z,70.80
2018-04-15T17:39:40.537Z,70.50
2018-04-15T17:42:07.101Z,70.60
2018-04-15T17:44:33.940Z,70.40
2018-04-15T17:47:00.556Z,70.10
2018-04-15T17:49:27.140Z,70.00
2018-04-15T17:51:53.672Z,70.20
2018-04-15T17:54:20.632Z,70.60
2018-04-15T17:56:47.200Z,70.60
2018-04-15T17:59:13.734Z,70.90
2018-04-15T18:01:40.479Z,70.70
2018-04-15T18:04:07.048Z,70.50
2018-04-15T18:06:33.913Z,71.00
2018-04-15T18:09:00.475Z,70.40
2018-04-15T18:11:27.600Z,70.90
2018-04-15T18:13:55.057Z,70.80
2018-04-15T18:16:21.628Z,70.90
2018-04-15T18:18:48.232Z,71.20
2018-04-15T18:21:16.000Z,72.30
2018-04-15T18:23:42.632Z,72.30
2018-04-15T18:26:09.294Z,72.60
2018-04-15T18:28:35.877Z,72.40
2018-04-15T18:31:02.577Z,72.50
2018-04-15T18:33:29.154Z,72.90
2018-04-15T18:35:57.075Z,73.40
2018-04-15T18:38:23.640Z,73.40
2018-04-15T18:40:50.208Z,73.40
2018-04-15T18:43:16.765Z,72.70
2018-04-15T18:45:44.270Z,73.10
2018-04-15T18:48:11.002Z,73.20
2018-04-15T18:50:37.960Z,73.50
2018-04-15T18:53:06.203Z,73.10
2018-04-15T18:55:34.293Z,73.20
2018-04-15T18:58:01.237Z,73.40
2018-04-15T19:00:27.884Z,73.40
2018-04-15T19:02:55.365Z,72.70
2018-04-15T19:05:21.923Z,72.60
2018-04-15T19:07:48.501Z,72.40
2018-04-15T19:10:15.436Z,71.70
2018-04-15T19:12:41.977Z,71.70
2018-04-15T19:15:08.548Z,71.20
2018-04-15T19:17:36.489Z,72.30
2018-04-15T19:20:03.580Z,71.80
2018-04-15T19:22:31.473Z,71.40
2018-04-15T19:24:58.403Z,71.20
2018-04-15T19:27:25.008Z,71.20
2018-04-15T19:29:52.445Z,71.30
2018-04-15T19:32:20.982Z,71.10
2018-04-15T19:34:48.575Z,71.00
2018-04-15T19:37:15.404Z,71.20
2018-04-15T19:39:41.971Z,71.30
2018-04-15T19:42:08.591Z,71.70
2018-04-15T19:44:36.976Z,72.10
2018-04-15T19:47:04.856Z,72.20
2018-04-15T19:49:32.613Z,72.20
2018-04-15T19:51:59.240Z,72.70
2018-04-15T19:54:26.172Z,73.30
2018-04-15T19:56:53.704Z,73.30
2018-04-15T19:59:21.135Z,73.60
2018-04-15T20:01:48.081Z,73.60
2018-04-15T20:04:14.635Z,73.60
2018-04-15T20:06:42.229Z,74.00
2018-04-15T20:09:08.796Z,74.00
2018-04-15T20:11:35.336Z,73.90
2018-04-15T20:14:01.941Z,73.70
2018-04-15T20:16:28.928Z,73.70
2018-04-15T20:18:56.481Z,73.70
2018-04-15T20:21:23.128Z,73.60
2018-04-15T20:23:57.901Z,74.30
2018-04-15T20:26:24.479Z,74.30
2018-04-15T20:28:51.072Z,74.00
2018-04-15T20:31:18.645Z,75.40
2018-04-15T20:33:45.207Z,75.40
2018-04-15T20:36:11.821Z,76.00
2018-04-15T20:38:38.363Z,77.20
2018-04-15T20:41:04.992Z,77.00
2018-04-15T20:43:31.572Z,77.10
2018-04-15T20:45:58.172Z,76.20
2018-04-15T20:48:24.732Z,76.50
2018-04-15T20:50:51.291Z,76.90
2018-04-15T20:53:17.869Z,77.00
2018-04-15T20:55:44.849Z,79.50
2018-04-15T20:58:11.419Z,79.50
2018-04-15T21:00:37.957Z,79.00
2018-04-15T21:03:04.612Z,80.50
2018-04-15T21:05:31.764Z,81.60
2018-04-15T21:07:58.296Z,80.40
2018-04-15T21:10:24.912Z,80.70
2018-04-15T21:12:51.476Z,81.20
2018-04-15T21:15:18.008Z,80.60
2018-04-15T21:17:44.867Z,79.60
2018-04-15T21:20:11.726Z,80.50
2018-04-15T21:22:38.925Z,80.80
2018-04-15T21:25:05.811Z,80.80
2018-04-15T21:27:32.657Z,80.80
2018-04-15T21:29:59.500Z,80.80
2018-04-15T21:32:26.386Z,80.50
2018-04-15T21:34:53.212Z,81.30
2018-04-15T21:37:20.097Z,80.90
2018-04-15T21:39:46.956Z,81.20
2018-04-15T21:42:13.812Z,80.50
2018-04-15T21:44:40.591Z,81.20
2018-04-15T21:47:07.783Z,81.40
2018-04-15T21:49:34.343Z,81.40
2018-04-15T21:52:00.876Z,81.50
2018-04-15T21:54:27.447Z,81.90
2018-04-15T21:56:54.069Z,82.10
2018-04-15T21:59:20.605Z,81.60
2018-04-15T22:01:47.165Z,81.20
2018-04-15T22:04:13.733Z,79.90
2018-04-15T22:06:40.268Z,80.80
2018-04-15T22:09:06.834Z,80.60
2018-04-15T22:11:45.904Z,80.00
2018-04-15T22:14:12.467Z,80.00
2018-04-15T22:16:39.420Z,79.70
2018-04-15T22:19:06.325Z,80.10
2018-04-15T22:21:32.940Z,80.10
2018-04-15T22:23:59.552Z,79.80
2018-04-15T22:26:26.128Z,79.40
2018-04-15T22:28:53.141Z,79.40
2018-04-15T22:31:19.718Z,79.40
2018-04-15T22:33:46.628Z,79.60
2018-04-15T22:36:13.192Z,79.60
2018-04-15T22:38:39.776Z,80.20
2018-04-15T22:41:06.730Z,81.00
2018-04-15T22:43:33.660Z,81.60
2018-04-15T22:46:00.227Z,81.60
2018-04-15T22:48:33.104Z,79.40
2018-04-15T22:50:59.672Z,79.50
2018-04-15T22:53:26.684Z,79.10
2018-04-15T22:55:53.268Z,79.10
2018-04-15T22:58:19.883Z,78.70
2018-04-15T23:00:46.477Z,79.20
2018-04-15T23:03:13.388Z,79.50
2018-04-15T23:05:39.951Z,79.50
2018-04-15T23:08:06.529Z,79.20
2018-04-15T23:10:33.442Z,80.00
2018-04-15T23:13:00.070Z,80.00
2018-04-15T23:15:26.680Z,80.10
2018-04-15T23:17:53.617Z,80.40
2018-04-15T23:20:20.232Z,80.40
2018-04-15T23:22:46.813Z,81.50
2018-04-15T23:25:13.356Z,81.60
2018-04-15T23:27:39.932Z,81.30
2018-04-15T23:30:06.954Z,81.40
2018-04-15T23:32:33.488Z,81.40
2018-04-15T23:35:00.053Z,81.70
2018-04-15T23:37:33.625Z,81.80
2018-04-15T23:40:00.241Z,82.00
2018-04-15T23:42:27.196Z,82.70
2018-04-15T23:44:53.724Z,82.70
2018-04-15T23:47:20.298Z,82.80
2018-04-15T23:49:47.236Z,82.80
2018-04-15T23:52:13.763Z,82.80
2018-04-15T23:54:40.331Z,82.80
2018-04-15T23:57:06.941Z,83.60
2018-04-15T23:59:33.484Z,83.60
